MST,Max TemperatureF,Mean TemperatureF,Min TemperatureF,Max Dew PointF,MeanDew PointF,Min DewpointF,Max Humidity, Mean Humidity, Min Humidity, Max Sea Level PressureIn, Mean Sea Level PressureIn, Min Sea Level PressureIn, Max VisibilityMiles, Mean VisibilityMiles, Min VisibilityMiles, Max Wind SpeedMPH, Mean Wind SpeedMPH, Max Gust SpeedMPH,PrecipitationIn, CloudCover, Events, WindDirDegrees
2012-12-1,48,39,30,33,30,27,96,71,45,29.84,29.78,29.69,10,9,2,20,5,30,0.05,6,Rain,220
2012-12-2,48,38,27,35,29,17,89,73,56,29.83,29.49,29.23,10,8,1,32,15,40,0.09,5,Rain-Snow,238
2012-12-3,37,30,23,20,19,17,81,65,48,30.25,30.08,29.84,10,10,10,20,6,25,0.00,2,,231
2012-12-4,42,33,23,31,25,18,82,68,54,30.23,30.07,29.96,10,10,10,17,5,22,0.00,6,,171
2012-12-5,46,37,28,34,27,20,92,72,52,30.05,29.93,29.82,10,10,10,22,7,29,T,3,,290
2012-12-6,31,25,18,25,21,16,92,78,63,30.09,29.98,29.87,10,6,0,9,3,10,T,7,Fog-Snow,340
2012-12-7,31,24,16,23,17,13,91,69,47,30.07,29.86,29.61,10,7,0,25,6,36,0.02,6,Fog-Snow,250
2012-12-8,24,13,1,21,8,-3,86,66,45,30.34,29.99,29.64,10,9,1,25,8,36,T,6,Snow,303
2012-12-9,21,7,-7,16,1,-10,87,66,45,30.56,30.35,29.99,10,9,2,13,4,20,T,4,Snow,358
2012-12-10,30,25,19,22,18,13,91,72,53,30.16,30.03,29.90,10,5,1,24,7,33,0.03,8,Snow,329
2012-12-11,37,30,23,22,20,18,81,65,48,30.02,29.75,29.57,10,10,9,16,6,24,0.00,7,,262
2012-12-12,32,24,15,28,24,14,92,78,63,29.94,29.65,29.54,10,5,0,12,2,14,0.05,8,Fog-Snow,307
2012-12-13,25,13,0,16,5,-3,95,84,73,30.13,30.00,29.78,10,9,0,9,3,9,0.00,1,Fog,138
2012-12-14,26,14,2,20,13,-1,95,82,68,29.96,29.82,29.68,10,6,0,9,2,10,T,6,Fog-Snow,185
2012-12-15,23,15,6,18,13,3,92,88,84,29.96,29.84,29.71,10,5,0,9,2,14,0.00,7,Fog,158
2012-12-16,27,19,11,14,10,3,84,63,42,29.84,29.75,29.58,10,9,2,20,5,25,T,5,Snow,265
2012-12-17,33,26,18,26,18,7,84,71,57,29.71,29.50,29.37,10,8,0,22,7,29,T,6,Fog-Snow,274
2012-12-18,21,9,-3,7,2,-7,83,64,45,30.08,29.90,29.70,10,10,10,17,5,24,0.00,3,,257
2012-12-19,21,6,-9,3,-3,-12,83,61,39,30.35,30.24,30.08,10,10,10,14,2,17,0.00,2,,92
2012-12-20,29,16,3,10,4,-2,80,63,46,30.35,30.24,30.15,10,10,10,20,5,26,0.00,0,,202
2012-12-21,32,19,6,14,7,1,80,60,39,30.20,30.12,29.95,10,10,9,10,1,13,0.00,2,,140
2012-12-22,36,21,5,14,7,0,83,61,39,30.10,29.98,29.83,10,10,10,16,3,21,0.00,3,,167
2012-12-23,32,21,10,23,14,5,88,66,43,30.06,29.90,29.76,10,9,0,18,5,29,T,4,Fog-Snow,170
2012-12-24,24,15,6,20,12,2,92,83,74,30.26,29.93,29.70,10,6,0,9,3,12,0.06,7,Fog-Snow,39
2012-12-25,20,11,2,11,6,2,96,82,67,30.32,30.16,29.96,10,8,5,6,1,8,T,6,Snow,161
2012-12-26,24,18,12,16,13,9,92,80,68,29.95,29.84,29.69,10,7,1,7,1,9,T,8,Snow,155
2012-12-27,27,22,16,18,16,14,84,76,68,30.07,29.94,29.72,10,8,3,8,3,10,T,8,Snow,338
2012-12-28,28,15,2,18,11,-1,92,71,50,30.28,30.12,29.92,10,8,2,13,4,16,T,5,Snow,303
2012-12-29,17,5,-7,11,4,-11,91,79,67,30.38,30.17,29.92,10,7,2,7,2,7,T,5,Snow,155
2012-12-30,21,12,2,11,4,-1,91,77,62,30.31,30.13,29.94,10,6,2,8,2,10,T,6,Snow,148
2012-12-31,18,10,2,10,7,1,88,78,67,30.38,30.28,30.03,10,10,9,9,3,12,0.00,7,,321